Time;durP1;ratioP1;P1;durP2;ratioP2;P2;SDS_P1;SDS_P2;PMS_P1;PMS_P2;Temp;Humidity;BMP_temperature;BMP_pressure;BME280_temperature;BME280_humidity;BME280_pressure;Samples;Min_cycle;Max_cycle;Signal;HPM_P1;HPM_P2
2021/01/12 00:04:33;;;;;;;;;;;4.60;99.90;;;;;;10404235;28;20421;-64
2021/01/12 00:09:34;;;;;;;;;;;4.50;99.90;;;;;;10404265;28;20200;-65
2021/01/12 00:14:36;;;;;;;;;;;4.60;99.90;;;;;;10403396;28;20404;-64
2021/01/12 00:19:38;;;;;;;;;;;4.60;99.90;;;;;;10404463;28;19981;-65
2021/01/12 00:24:48;;;;;;;;;;;4.70;99.90;;;;;;10404538;28;19969;-64
2021/01/12 00:29:50;;;;;;;;;;;4.80;99.90;;;;;;10403135;28;20012;-64
2021/01/12 00:34:52;;;;;;;;;;;4.60;99.90;;;;;;10403796;28;19948;-64
2021/01/12 00:39:53;;;;;;;;;;;4.60;99.90;;;;;;10403764;28;19929;-64
2021/01/12 00:44:55;;;;;;;;;;;4.60;99.90;;;;;;10404981;28;19925;-64
2021/01/12 00:49:56;;;;;;;;;;;4.50;99.90;;;;;;10426189;28;19948;-64
2021/01/12 00:54:57;;;;;;;;;;;4.50;99.90;;;;;;10411636;28;20234;-65
2021/01/12 00:59:58;;;;;;;;;;;4.50;99.90;;;;;;10410519;28;20332;-64
2021/01/12 01:05:00;;;;;;;;;;;4.60;99.90;;;;;;10410512;28;19964;-64
2021/01/12 01:10:01;;;;;;;;;;;4.60;99.90;;;;;;10410557;28;19960;-64
2021/01/12 01:15:03;;;;;;;;;;;4.60;99.90;;;;;;10409478;28;19933;-65
2021/01/12 01:20:05;;;;;;;;;;;4.60;99.90;;;;;;10409931;28;19925;-64
2021/01/12 01:25:06;;;;;;;;;;;4.60;99.90;;;;;;10409451;28;20370;-64
2021/01/12 01:30:08;;;;;;;;;;;4.60;99.90;;;;;;10408680;28;19971;-65
2021/01/12 01:35:10;;;;;;;;;;;4.60;99.90;;;;;;10409509;28;19925;-64
2021/01/12 01:40:21;;;;;;;;;;;4.50;99.90;;;;;;10408821;28;19925;-65
2021/01/12 01:45:25;;;;;;;;;;;4.60;99.90;;;;;;10407812;28;20308;-64
2021/01/12 01:50:26;;;;;;;;;;;4.70;99.90;;;;;;10408483;28;19936;-65
2021/01/12 01:55:28;;;;;;;;;;;4.60;99.90;;;;;;10407745;28;20019;-64
2021/01/12 02:00:30;;;;;;;;;;;4.70;99.90;;;;;;10407645;28;19925;-64
2021/01/12 02:05:33;;;;;;;;;;;4.70;99.90;;;;;;10407935;28;19964;-64
2021/01/12 02:10:40;;;;;;;;;;;4.70;99.90;;;;;;10408171;28;19964;-65
2021/01/12 02:15:43;;;;;;;;;;;4.60;99.90;;;;;;10407666;28;19925;-65
2021/01/12 02:20:44;;;;;;;;;;;4.60;99.90;;;;;;10407666;28;20016;-65
2021/01/12 02:25:47;;;;;;;;;;;4.70;99.90;;;;;;10407300;28;20031;-64
2021/01/12 02:30:49;;;;;;;;;;;4.70;99.90;;;;;;10406433;28;20427;-64
2021/01/12 02:35:53;;;;;;;;;;;4.70;99.90;;;;;;10406849;28;19925;-64
2021/01/12 02:40:54;;;;;;;;;;;4.60;99.90;;;;;;10406372;28;19925;-64
2021/01/12 02:45:56;;;;;;;;;;;4.60;99.90;;;;;;10405896;28;20055;-65
2021/01/12 02:50:57;;;;;;;;;;;4.60;99.90;;;;;;10406247;28;19961;-65
2021/01/12 02:55:59;;;;;;;;;;;4.60;99.90;;;;;;10405731;28;19929;-64
2021/01/12 03:01:00;;;;;;;;;;;4.60;99.90;;;;;;10406197;28;19968;-64
2021/01/12 03:06:02;;;;;;;;;;;4.60;99.90;;;;;;10412829;28;19929;-64
2021/01/12 03:11:03;;;;;;;;;;;4.50;99.90;;;;;;10413930;28;20524;-64
2021/01/12 03:16:05;;;;;;;;;;;4.40;99.90;;;;;;10401953;28;20015;-64
2021/01/12 03:21:07;;;;;;;;;;;4.40;99.90;;;;;;10412378;28;19929;-65
2021/01/12 03:26:08;;;;;;;;;;;4.40;99.90;;;;;;10411812;28;19975;-64
2021/01/12 03:31:09;;;;;;;;;;;4.40;99.90;;;;;;10411597;28;20373;-64
2021/01/12 03:36:11;;;;;;;;;;;4.50;99.90;;;;;;10412340;28;19971;-64
2021/01/12 03:41:12;;;;;;;;;;;4.50;99.90;;;;;;10411860;28;20017;-64
2021/01/12 03:46:13;;;;;;;;;;;4.50;99.90;;;;;;10411356;28;19976;-64
2021/01/12 03:51:15;;;;;;;;;;;4.50;99.90;;;;;;10411434;28;20366;-64
2021/01/12 03:56:16;;;;;;;;;;;4.50;99.90;;;;;;10411244;28;20363;-64
2021/01/12 04:01:17;;;;;;;;;;;4.50;99.90;;;;;;10411343;28;20000;-65
2021/01/12 04:06:20;;;;;;;;;;;4.50;99.90;;;;;;10405283;28;19936;-65
2021/01/12 04:11:22;;;;;;;;;;;4.50;99.90;;;;;;10405189;28;20440;-64
2021/01/12 04:16:23;;;;;;;;;;;4.50;99.90;;;;;;10403243;28;20016;-65
2021/01/12 04:21:25;;;;;;;;;;;4.50;99.90;;;;;;10408145;28;19929;-65
2021/01/12 04:26:27;;;;;;;;;;;4.50;99.90;;;;;;10412028;28;19936;-66
2021/01/12 04:31:28;;;;;;;;;;;4.60;99.90;;;;;;10426207;28;19968;-65
2021/01/12 04:36:29;;;;;;;;;;;4.60;99.90;;;;;;10439548;28;20016;-66
2021/01/12 04:41:30;;;;;;;;;;;4.50;99.90;;;;;;10407828;28;19980;-65
2021/01/12 04:46:32;;;;;;;;;;;4.50;99.90;;;;;;10411654;28;19925;-65
2021/01/12 04:51:34;;;;;;;;;;;4.50;99.90;;;;;;10411180;28;20361;-65
2021/01/12 04:56:35;;;;;;;;;;;4.60;99.90;;;;;;10411524;28;19940;-65
2021/01/12 05:01:37;;;;;;;;;;;4.60;99.90;;;;;;10410296;28;19929;-65
2021/01/12 05:06:39;;;;;;;;;;;4.60;99.90;;;;;;10410735;28;19926;-65
2021/01/12 05:11:41;;;;;;;;;;;4.60;99.90;;;;;;10410614;28;20019;-65
2021/01/12 05:16:46;;;;;;;;;;;4.60;99.90;;;;;;10409783;28;19994;-65
2021/01/12 05:21:48;;;;;;;;;;;4.50;99.90;;;;;;10409967;28;19925;-64
2021/01/12 05:26:49;;;;;;;;;;;4.60;99.90;;;;;;10410752;28;19972;-65
2021/01/12 05:31:51;;;;;;;;;;;4.60;99.90;;;;;;10409013;28;19925;-65
2021/01/12 05:36:53;;;;;;;;;;;4.70;99.90;;;;;;10409866;28;19975;-65
2021/01/12 05:41:56;;;;;;;;;;;4.60;99.90;;;;;;10409524;28;20427;-65
2021/01/12 05:46:57;;;;;;;;;;;4.60;99.90;;;;;;10423691;28;20424;-65
2021/01/12 05:51:59;;;;;;;;;;;4.60;99.90;;;;;;10409125;28;19925;-65
2021/01/12 05:57:01;;;;;;;;;;;4.50;99.90;;;;;;10408382;28;19971;-64
2021/01/12 06:02:08;;;;;;;;;;;4.50;99.90;;;;;;10408180;28;20017;-65
2021/01/12 06:07:09;;;;;;;;;;;4.50;99.90;;;;;;10408455;28;19936;-65
2021/01/12 06:12:11;;;;;;;;;;;4.50;99.90;;;;;;10409091;28;19925;-65
2021/01/12 06:17:15;;;;;;;;;;;4.40;99.90;;;;;;10407314;28;19972;-65
2021/01/12 06:22:23;;;;;;;;;;;4.40;99.90;;;;;;10407655;28;20362;-65
2021/01/12 06:27:25;;;;;;;;;;;4.40;99.90;;;;;;10407698;28;20028;-65
2021/01/12 06:32:28;;;;;;;;;;;4.40;99.90;;;;;;10407260;28;20473;-65
2021/01/12 06:37:33;;;;;;;;;;;4.40;99.90;;;;;;10407397;28;19971;-65
2021/01/12 06:42:35;;;;;;;;;;;4.40;99.90;;;;;;10421806;28;19964;-65
2021/01/12 06:47:37;;;;;;;;;;;4.40;99.90;;;;;;10406395;28;20497;-64
2021/01/12 06:52:42;;;;;;;;;;;4.50;99.90;;;;;;10406873;28;19928;-64
2021/01/12 06:57:44;;;;;;;;;;;4.60;99.90;;;;;;10406347;28;20334;-65
2021/01/12 07:02:54;;;;;;;;;;;4.60;99.90;;;;;;10405908;28;20371;-65
2021/01/12 07:07:56;;;;;;;;;;;4.50;99.90;;;;;;10406502;28;19968;-65
2021/01/12 07:12:57;;;;;;;;;;;4.50;99.90;;;;;;10405802;28;19983;-65
2021/01/12 07:18:00;;;;;;;;;;;4.60;99.90;;;;;;10405144;28;19971;-65
2021/01/12 07:23:03;;;;;;;;;;;4.60;99.90;;;;;;10421523;28;20289;-65
2021/01/12 07:28:08;;;;;;;;;;;4.60;99.90;;;;;;10405384;28;20106;-65
2021/01/12 07:33:20;;;;;;;;;;;4.70;99.90;;;;;;10404514;28;19968;-65
2021/01/12 07:38:25;;;;;;;;;;;4.70;99.90;;;;;;10405385;28;20372;-65
2021/01/12 07:43:27;;;;;;;;;;;4.70;99.90;;;;;;10404768;28;20020;-65
2021/01/12 07:48:28;;;;;;;;;;;4.70;99.90;;;;;;10404333;28;20340;-65
2021/01/12 07:53:33;;;;;;;;;;;4.70;99.90;;;;;;10404991;28;20032;-65
2021/01/12 07:58:35;;;;;;;;;;;4.70;99.90;;;;;;10413070;28;19932;-65
2021/01/12 08:03:37;;;;;;;;;;;4.60;99.90;;;;;;10413182;28;19972;-65
2021/01/12 08:08:38;;;;;;;;;;;4.70;99.90;;;;;;10413164;28;19983;-65
2021/01/12 08:13:40;;;;;;;;;;;4.70;99.90;;;;;;10412291;28;19971;-65
2021/01/12 08:18:41;;;;;;;;;;;4.70;99.90;;;;;;10412634;28;20013;-65
2021/01/12 08:23:42;;;;;;;;;;;4.80;99.90;;;;;;10413157;28;20009;-65
2021/01/12 08:28:44;;;;;;;;;;;4.80;99.90;;;;;;10411647;28;19932;-65
2021/01/12 08:33:47;;;;;;;;;;;4.80;99.90;;;;;;10412008;28;19986;-65
2021/01/12 08:38:50;;;;;;;;;;;4.80;99.90;;;;;;10411724;28;19924;-65
2021/01/12 08:43:55;;;;;;;;;;;4.80;99.90;;;;;;10411624;28;19932;-65
2021/01/12 08:48:57;;;;;;;;;;;4.80;99.90;;;;;;10410620;28;19987;-65
2021/01/12 08:53:59;;;;;;;;;;;4.90;99.90;;;;;;10409129;28;20008;-65
2021/01/12 08:59:05;;;;;;;;;;;4.90;99.90;;;;;;10408902;28;19925;-65
2021/01/12 09:04:09;;;;;;;;;;;4.90;99.90;;;;;;10408367;28;20377;-65
2021/01/12 09:09:11;;;;;;;;;;;5.00;99.90;;;;;;10408280;28;19965;-65
2021/01/12 09:14:13;;;;;;;;;;;5.10;99.90;;;;;;10407781;28;19975;-65
2021/01/12 09:19:17;;;;;;;;;;;5.10;99.90;;;;;;10407935;28;19987;-65
2021/01/12 09:24:20;;;;;;;;;;;5.30;99.90;;;;;;10408154;28;19939;-65
2021/01/12 09:29:21;;;;;;;;;;;5.30;99.90;;;;;;10406965;28;20386;-65
2021/01/12 09:34:23;;;;;;;;;;;5.40;99.90;;;;;;10407787;28;19975;-65
2021/01/12 09:39:27;;;;;;;;;;;5.40;99.90;;;;;;10407492;28;19956;-65
2021/01/12 09:44:29;;;;;;;;;;;5.30;99.90;;;;;;10406863;28;20369;-65
2021/01/12 09:49:30;;;;;;;;;;;5.30;99.90;;;;;;10359972;28;1355481;-65
2021/01/12 09:54:32;;;;;;;;;;;5.30;99.90;;;;;;10409141;28;19929;-65
2021/01/12 09:59:33;;;;;;;;;;;5.40;99.90;;;;;;10408342;28;19932;-65
2021/01/12 10:04:34;;;;;;;;;;;5.30;99.90;;;;;;10408617;28;19952;-65
2021/01/12 10:09:37;;;;;;;;;;;5.30;99.90;;;;;;10407882;28;20455;-65
2021/01/12 10:14:39;;;;;;;;;;;5.30;99.90;;;;;;10407999;28;19928;-65
2021/01/12 10:19:40;;;;;;;;;;;5.40;99.90;;;;;;10407142;28;19972;-65
2021/01/12 10:24:41;;;;;;;;;;;5.40;99.90;;;;;;10407871;28;20390;-65
2021/01/12 10:29:43;;;;;;;;;;;5.40;99.90;;;;;;10406390;28;20031;-65
2021/01/12 10:34:44;;;;;;;;;;;5.50;99.90;;;;;;10407643;28;20019;-65
2021/01/12 10:39:46;;;;;;;;;;;5.50;99.90;;;;;;10407221;28;19971;-65
2021/01/12 10:44:47;;;;;;;;;;;5.60;99.90;;;;;;10406344;28;19972;-65
2021/01/12 10:49:48;;;;;;;;;;;5.60;99.90;;;;;;10406627;28;20020;-65
2021/01/12 10:54:50;;;;;;;;;;;5.70;99.90;;;;;;10406575;28;19951;-65
2021/01/12 10:59:52;;;;;;;;;;;5.80;99.90;;;;;;10406130;28;20015;-65
2021/01/12 11:04:53;;;;;;;;;;;5.80;99.90;;;;;;10406063;28;19925;-65
2021/01/12 11:09:54;;;;;;;;;;;5.90;99.90;;;;;;10406556;28;20016;-65
2021/01/12 11:14:56;;;;;;;;;;;5.90;99.90;;;;;;10405854;28;19968;-65
2021/01/12 11:19:57;;;;;;;;;;;5.90;99.90;;;;;;10405594;28;19961;-65
2021/01/12 11:25:03;;;;;;;;;;;6.00;99.90;;;;;;10405642;28;20019;-65
2021/01/12 11:30:05;;;;;;;;;;;6.00;99.90;;;;;;10405271;28;19929;-65
2021/01/12 11:35:06;;;;;;;;;;;6.00;99.90;;;;;;10405951;28;19986;-65
2021/01/12 11:40:08;;;;;;;;;;;6.10;99.90;;;;;;10405420;28;19929;-66
2021/01/12 11:45:10;;;;;;;;;;;6.10;99.90;;;;;;10404862;28;20012;-65
2021/01/12 11:50:11;;;;;;;;;;;6.30;99.90;;;;;;10405176;28;20464;-65
2021/01/12 11:55:13;;;;;;;;;;;6.20;99.90;;;;;;10404204;28;19980;-65
2021/01/12 12:00:14;;;;;;;;;;;6.30;99.90;;;;;;10405443;28;19995;-65
2021/01/12 12:05:16;;;;;;;;;;;6.30;99.90;;;;;;10404990;28;20023;-65
2021/01/12 12:10:18;;;;;;;;;;;6.40;99.90;;;;;;10405121;28;19929;-66
2021/01/12 12:15:20;;;;;;;;;;;6.50;99.90;;;;;;10404406;28;19933;-65
2021/01/12 12:20:22;;;;;;;;;;;6.70;99.90;;;;;;10405040;28;19925;-65
2021/01/12 12:25:23;;;;;;;;;;;6.90;99.90;;;;;;10404169;28;20022;-65
2021/01/12 12:30:25;;;;;;;;;;;7.10;99.90;;;;;;10404110;28;20373;-65
2021/01/12 12:35:26;;;;;;;;;;;7.00;99.90;;;;;;10404425;28;20015;-65
2021/01/12 12:40:27;;;;;;;;;;;6.90;99.90;;;;;;10405220;28;19969;-65
2021/01/12 12:45:29;;;;;;;;;;;7.00;99.90;;;;;;10411197;28;20024;-65
2021/01/12 12:50:30;;;;;;;;;;;7.10;99.90;;;;;;10411830;28;19948;-65
2021/01/12 12:55:31;;;;;;;;;;;6.90;99.90;;;;;;10411219;28;20401;-65
2021/01/12 13:00:33;;;;;;;;;;;6.80;99.90;;;;;;10410533;28;19972;-65
2021/01/12 13:05:37;;;;;;;;;;;6.80;99.90;;;;;;10410482;28;20427;-65
2021/01/12 13:10:38;;;;;;;;;;;6.70;99.90;;;;;;10410484;28;20470;-65
2021/01/12 13:15:39;;;;;;;;;;;6.60;99.90;;;;;;10408242;28;20373;-67
2021/01/12 13:20:41;;;;;;;;;;;6.70;99.90;;;;;;10409771;28;19979;-66
2021/01/12 13:25:42;;;;;;;;;;;6.80;99.90;;;;;;10406848;28;20014;-67
2021/01/12 13:30:45;;;;;;;;;;;6.80;99.90;;;;;;10405741;28;19971;-67
2021/01/12 13:35:47;;;;;;;;;;;7.00;99.90;;;;;;10407908;28;19925;-67
2021/01/12 13:40:49;;;;;;;;;;;6.90;99.90;;;;;;10406244;28;20496;-67
2021/01/12 13:45:53;;;;;;;;;;;7.00;99.90;;;;;;10399840;28;19929;-67
2021/01/12 13:50:54;;;;;;;;;;;6.90;99.90;;;;;;10407139;28;20020;-67
2021/01/12 13:55:56;;;;;;;;;;;6.90;99.90;;;;;;10404015;28;20348;-67
2021/01/12 14:00:58;;;;;;;;;;;7.00;99.90;;;;;;10394034;28;20014;-67
2021/01/12 14:06:00;;;;;;;;;;;7.10;99.90;;;;;;10405886;28;19999;-67
2021/01/12 14:11:01;;;;;;;;;;;7.20;99.90;;;;;;10406363;28;19925;-66
2021/01/12 14:16:03;;;;;;;;;;;7.20;99.90;;;;;;10404874;28;20613;-67
2021/01/12 14:21:04;;;;;;;;;;;7.20;99.90;;;;;;10405493;28;20028;-67
2021/01/12 14:26:06;;;;;;;;;;;7.10;99.90;;;;;;10406087;28;19987;-67
2021/01/12 14:31:07;;;;;;;;;;;7.10;99.90;;;;;;10406212;28;20366;-67
2021/01/12 14:36:12;;;;;;;;;;;7.00;99.90;;;;;;10406247;28;20408;-67
2021/01/12 14:41:14;;;;;;;;;;;7.00;99.90;;;;;;10406104;28;19964;-67
2021/01/12 14:46:18;;;;;;;;;;;7.00;99.90;;;;;;10405165;28;20014;-67
2021/01/12 14:51:19;;;;;;;;;;;6.90;99.90;;;;;;10406198;28;20873;-67
2021/01/12 14:56:20;;;;;;;;;;;6.90;99.90;;;;;;10405614;28;20007;-67
2021/01/12 15:01:22;;;;;;;;;;;7.10;99.90;;;;;;10405231;28;19929;-67
2021/01/12 15:06:23;;;;;;;;;;;7.10;99.90;;;;;;10405817;28;19972;-67
2021/01/12 15:11:24;;;;;;;;;;;7.10;99.90;;;;;;10406014;28;20011;-69
2021/01/12 15:16:26;;;;;;;;;;;7.00;99.90;;;;;;10404026;28;20014;-67
2021/01/12 15:21:27;;;;;;;;;;;7.00;99.90;;;;;;10405102;28;19925;-67
2021/01/12 15:26:28;;;;;;;;;;;7.00;99.90;;;;;;10404940;28;19976;-66
2021/01/12 15:31:30;;;;;;;;;;;7.10;99.90;;;;;;10404498;28;20008;-67
2021/01/12 15:36:31;;;;;;;;;;;7.10;99.90;;;;;;10404094;28;20393;-67
2021/01/12 15:41:34;;;;;;;;;;;7.00;99.90;;;;;;10404434;28;20000;-67
2021/01/12 15:46:36;;;;;;;;;;;6.80;99.90;;;;;;10404212;28;20180;-67
2021/01/12 15:51:37;;;;;;;;;;;6.70;99.90;;;;;;10404887;28;20373;-67
2021/01/12 15:56:39;;;;;;;;;;;6.60;99.90;;;;;;10402697;28;20039;-65
2021/01/12 16:01:47;;;;;;;;;;;6.30;99.90;;;;;;10403965;28;19964;-65
2021/01/12 16:06:50;;;;;;;;;;;6.20;99.90;;;;;;10403488;28;20031;-65
2021/01/12 16:11:55;;;;;;;;;;;6.20;99.90;;;;;;10404092;28;20300;-65
2021/01/12 16:16:56;;;;;;;;;;;6.10;99.90;;;;;;10406798;28;19926;-65
2021/01/12 16:22:01;;;;;;;;;;;6.10;99.90;;;;;;10411742;28;19964;-65
2021/01/12 16:27:02;;;;;;;;;;;6.00;99.90;;;;;;10411529;28;20566;-65
2021/01/12 16:32:04;;;;;;;;;;;5.90;99.90;;;;;;10410079;28;19925;-65
2021/01/12 16:37:05;;;;;;;;;;;5.80;99.90;;;;;;10406051;28;19929;-65
2021/01/12 16:42:11;;;;;;;;;;;5.70;99.90;;;;;;10406588;28;20308;-65
2021/01/12 16:47:12;;;;;;;;;;;5.60;99.90;;;;;;10409350;28;19979;-64
2021/01/12 16:52:14;;;;;;;;;;;5.40;99.90;;;;;;10444485;28;19955;-64
2021/01/12 16:57:18;;;;;;;;;;;5.40;99.90;;;;;;10449644;28;20365;-64
2021/01/12 17:02:39;;;;;;;;;;;5.30;99.90;;;;;;10450852;28;19925;-64
2021/01/12 17:07:42;;;;;;;;;;;5.30;99.90;;;;;;10450370;28;19925;-64
2021/01/12 17:12:44;;;;;;;;;;;5.20;99.90;;;;;;10454573;28;20420;-64
2021/01/12 17:17:47;;;;;;;;;;;5.20;99.90;;;;;;10456793;28;20384;-64
2021/01/12 17:22:50;;;;;;;;;;;5.20;99.90;;;;;;10449518;28;19959;-64
2021/01/12 17:27:52;;;;;;;;;;;5.10;99.90;;;;;;10464522;28;19968;-63
2021/01/12 17:32:57;;;;;;;;;;;5.00;99.90;;;;;;10489585;28;20443;-63
2021/01/12 17:38:00;;;;;;;;;;;4.90;99.90;;;;;;10455304;28;19929;-64
2021/01/12 17:43:01;;;;;;;;;;;4.80;99.90;;;;;;10492225;28;19971;-64
2021/01/12 17:48:03;;;;;;;;;;;4.90;99.90;;;;;;10471226;28;20018;-64
2021/01/12 17:53:04;;;;;;;;;;;4.80;99.90;;;;;;10489301;28;19963;-64
2021/01/12 17:58:06;;;;;;;;;;;4.70;99.90;;;;;;10471428;28;20341;-64
2021/01/12 18:03:10;;;;;;;;;;;4.70;99.90;;;;;;10448531;28;20344;-63
2021/01/12 18:08:14;;;;;;;;;;;4.80;99.90;;;;;;10456402;28;20055;-64
2021/01/12 18:13:17;;;;;;;;;;;4.80;99.90;;;;;;10446966;28;20023;-64
2021/01/12 18:18:19;;;;;;;;;;;4.80;99.90;;;;;;10446917;28;20044;-64
2021/01/12 18:23:22;;;;;;;;;;;4.90;99.90;;;;;;10446477;28;19932;-64
2021/01/12 18:28:28;;;;;;;;;;;4.80;99.90;;;;;;10445255;28;19925;-65
2021/01/12 18:33:29;;;;;;;;;;;4.70;99.90;;;;;;10446225;28;20035;-64
2021/01/12 18:38:31;;;;;;;;;;;4.70;99.90;;;;;;10444745;28;19970;-64
2021/01/12 18:43:35;;;;;;;;;;;4.70;99.90;;;;;;10444652;28;19929;-65
2021/01/12 18:48:36;;;;;;;;;;;4.70;99.90;;;;;;10446099;28;19968;-65
2021/01/12 18:53:38;;;;;;;;;;;4.70;99.90;;;;;;10445858;28;19936;-64
2021/01/12 18:58:39;;;;;;;;;;;4.70;99.90;;;;;;10445358;28;20407;-64
2021/01/12 19:03:41;;;;;;;;;;;4.70;99.90;;;;;;10444122;28;19931;-65
2021/01/12 19:08:43;;;;;;;;;;;4.70;99.90;;;;;;10440555;28;19945;-64
2021/01/12 19:13:46;;;;;;;;;;;4.60;99.90;;;;;;10441453;28;19928;-65
2021/01/12 19:18:48;;;;;;;;;;;4.50;99.90;;;;;;10444318;28;19951;-64
2021/01/12 19:23:49;;;;;;;;;;;4.60;99.90;;;;;;10442022;28;19975;-64
2021/01/12 19:28:51;;;;;;;;;;;4.60;99.90;;;;;;10441098;28;20414;-65
2021/01/12 19:33:55;;;;;;;;;;;4.60;99.90;;;;;;10440865;28;19964;-64
2021/01/12 19:38:56;;;;;;;;;;;4.70;99.90;;;;;;10444898;28;19936;-64
2021/01/12 19:43:58;;;;;;;;;;;4.70;99.90;;;;;;10444163;28;19935;-64
2021/01/12 19:49:02;;;;;;;;;;;4.70;99.90;;;;;;10444585;28;19928;-65
2021/01/12 19:54:03;;;;;;;;;;;4.80;99.90;;;;;;10453618;28;19974;-64
2021/01/12 19:59:04;;;;;;;;;;;4.80;99.90;;;;;;10452577;28;20006;-64
2021/01/12 20:04:07;;;;;;;;;;;4.80;99.90;;;;;;10452331;28;20262;-64
2021/01/12 20:09:09;;;;;;;;;;;4.70;99.90;;;;;;10452138;28;20015;-65
2021/01/12 20:14:11;;;;;;;;;;;4.70;99.90;;;;;;10452851;28;19925;-64
2021/01/12 20:19:16;;;;;;;;;;;4.60;99.90;;;;;;10449883;28;20454;-64
2021/01/12 20:24:28;;;;;;;;;;;4.60;99.90;;;;;;10453387;28;19979;-64
2021/01/12 20:29:29;;;;;;;;;;;4.50;99.90;;;;;;10452921;28;19970;-64
2021/01/12 20:34:31;;;;;;;;;;;4.60;99.90;;;;;;10452851;28;19998;-64
2021/01/12 20:39:32;;;;;;;;;;;4.50;99.90;;;;;;10452687;28;19960;-64
2021/01/12 20:44:34;;;;;;;;;;;4.40;99.90;;;;;;10452351;28;19929;-64
2021/01/12 20:49:37;;;;;;;;;;;4.40;99.90;;;;;;10451765;28;19964;-64
2021/01/12 20:54:38;;;;;;;;;;;4.40;99.90;;;;;;10451828;28;20023;-64
2021/01/12 20:59:39;;;;;;;;;;;4.50;99.90;;;;;;10451351;28;19970;-64
2021/01/12 21:04:41;;;;;;;;;;;4.50;99.90;;;;;;10450811;28;19968;-64
2021/01/12 21:09:43;;;;;;;;;;;4.70;99.90;;;;;;10451055;28;19974;-64
2021/01/12 21:14:44;;;;;;;;;;;4.60;99.90;;;;;;10450946;28;19972;-64
2021/01/12 21:19:45;;;;;;;;;;;4.50;99.90;;;;;;10450918;28;19924;-64
2021/01/12 21:24:46;;;;;;;;;;;4.50;99.90;;;;;;10450933;28;20059;-64
2021/01/12 21:29:48;;;;;;;;;;;4.40;99.90;;;;;;10449492;28;19991;-65
2021/01/12 21:34:49;;;;;;;;;;;4.40;99.90;;;;;;10450355;28;19960;-64
2021/01/12 21:39:50;;;;;;;;;;;4.40;99.90;;;;;;10449791;28;19925;-64
2021/01/12 21:44:52;;;;;;;;;;;4.30;99.90;;;;;;10450097;28;20597;-64
2021/01/12 21:49:53;;;;;;;;;;;4.30;99.90;;;;;;10449691;28;20420;-64
2021/01/12 21:54:55;;;;;;;;;;;4.20;99.90;;;;;;10449769;28;19928;-64
2021/01/12 21:59:56;;;;;;;;;;;4.20;99.90;;;;;;10448557;28;20019;-64
2021/01/12 22:04:57;;;;;;;;;;;4.00;99.90;;;;;;10448918;28;20356;-64
2021/01/12 22:09:58;;;;;;;;;;;4.00;99.90;;;;;;10448891;28;19928;-64
2021/01/12 22:15:00;;;;;;;;;;;4.00;99.90;;;;;;10462828;28;19928;-64
2021/01/12 22:20:02;;;;;;;;;;;3.90;99.90;;;;;;10447791;28;19972;-64
2021/01/12 22:25:06;;;;;;;;;;;3.90;99.90;;;;;;10423486;28;19978;-64
2021/01/12 22:30:08;;;;;;;;;;;3.80;99.90;;;;;;10488393;28;19978;-64
2021/01/12 22:35:10;;;;;;;;;;;3.90;99.90;;;;;;10453260;28;19972;-64
2021/01/12 22:40:11;;;;;;;;;;;3.90;99.90;;;;;;10447446;28;19928;-64
2021/01/12 22:45:15;;;;;;;;;;;3.90;99.90;;;;;;10447340;28;20085;-64
2021/01/12 22:50:17;;;;;;;;;;;3.80;99.90;;;;;;10446525;28;19975;-64
2021/01/12 22:55:18;;;;;;;;;;;3.90;99.90;;;;;;10446880;28;19928;-64
2021/01/12 23:00:23;;;;;;;;;;;4.00;99.90;;;;;;10447439;28;19925;-64
2021/01/12 23:05:26;;;;;;;;;;;4.00;99.90;;;;;;10446180;28;19937;-64
2021/01/12 23:10:27;;;;;;;;;;;4.10;99.90;;;;;;10446342;28;20011;-64
2021/01/12 23:15:29;;;;;;;;;;;4.30;99.90;;;;;;10446247;28;19979;-64
2021/01/12 23:20:30;;;;;;;;;;;4.50;99.90;;;;;;10446417;28;19995;-64
2021/01/12 23:25:32;;;;;;;;;;;4.50;99.90;;;;;;10446068;28;20367;-64
2021/01/12 23:30:34;;;;;;;;;;;4.50;99.90;;;;;;10462744;28;20285;-64
2021/01/12 23:35:37;;;;;;;;;;;4.60;99.90;;;;;;10462665;28;19925;-64
2021/01/12 23:40:39;;;;;;;;;;;4.50;99.90;;;;;;10445930;28;20400;-64
2021/01/12 23:45:41;;;;;;;;;;;4.40;99.90;;;;;;10445547;28;19968;-64
2021/01/12 23:50:43;;;;;;;;;;;4.40;99.90;;;;;;10445219;28;19925;-64
2021/01/12 23:55:45;;;;;;;;;;;4.40;99.90;;;;;;10445849;28;19928;-64
